sensor_id;sensor_type;location;lat;lon;timestamp;P1;durP1;ratioP1;P2;durP2;ratioP2
30934;SDS011;51033;42.648;23.292;2022-12-29T00:01:18;42.33;;;28.80;;
30934;SDS011;51033;42.648;23.292;2022-12-29T00:03:47;43.45;;;29.13;;
30934;SDS011;51033;42.648;23.292;2022-12-29T00:06:12;44.00;;;29.77;;
30934;SDS011;51033;42.648;23.292;2022-12-29T00:08:38;38.97;;;27.52;;
30934;SDS011;51033;42.648;23.292;2022-12-29T00:11:06;39.22;;;27.55;;
30934;SDS011;51033;42.648;23.292;2022-12-29T00:13:32;39.50;;;28.92;;
30934;SDS011;51033;42.648;23.292;2022-12-29T00:16:17;38.47;;;29.17;;
30934;SDS011;51033;42.648;23.292;2022-12-29T00:18:42;40.83;;;28.55;;
30934;SDS011;51033;42.648;23.292;2022-12-29T00:21:09;39.17;;;26.88;;
30934;SDS011;51033;42.648;23.292;2022-12-29T00:23:57;35.85;;;26.30;;
30934;SDS011;51033;42.648;23.292;2022-12-29T00:26:41;38.10;;;25.50;;
30934;SDS011;51033;42.648;23.292;2022-12-29T00:29:25;35.92;;;25.42;;
30934;SDS011;51033;42.648;23.292;2022-12-29T00:32:09;37.05;;;25.92;;
30934;SDS011;51033;42.648;23.292;2022-12-29T00:34:54;46.90;;;29.67;;
30934;SDS011;51033;42.648;23.292;2022-12-29T00:37:41;41.20;;;27.73;;
30934;SDS011;51033;42.648;23.292;2022-12-29T00:40:27;69.50;;;41.25;;
30934;SDS011;51033;42.648;23.292;2022-12-29T00:43:11;161.95;;;84.68;;
30934;SDS011;51033;42.648;23.292;2022-12-29T00:45:55;181.13;;;93.30;;
30934;SDS011;51033;42.648;23.292;2022-12-29T00:48:21;240.27;;;120.60;;
30934;SDS011;51033;42.648;23.292;2022-12-29T00:51:06;150.27;;;79.13;;
30934;SDS011;51033;42.648;23.292;2022-12-29T00:53:32;72.85;;;44.83;;
30934;SDS011;51033;42.648;23.292;2022-12-29T00:55:57;55.70;;;36.35;;
30934;SDS011;51033;42.648;23.292;2022-12-29T00:58:23;143.27;;;76.65;;
30934;SDS011;51033;42.648;23.292;2022-12-29T01:00:48;101.25;;;57.85;;
30934;SDS011;51033;42.648;23.292;2022-12-29T01:03:13;52.45;;;35.20;;
30934;SDS011;51033;42.648;23.292;2022-12-29T01:05:39;45.13;;;30.42;;
30934;SDS011;51033;42.648;23.292;2022-12-29T01:08:04;50.42;;;35.58;;
30934;SDS011;51033;42.648;23.292;2022-12-29T01:10:30;88.75;;;51.17;;
30934;SDS011;51033;42.648;23.292;2022-12-29T01:12:55;74.60;;;47.42;;
30934;SDS011;51033;42.648;23.292;2022-12-29T01:15:20;60.15;;;38.33;;
30934;SDS011;51033;42.648;23.292;2022-12-29T01:17:46;48.10;;;33.63;;
30934;SDS011;51033;42.648;23.292;2022-12-29T01:20:12;46.95;;;32.05;;
30934;SDS011;51033;42.648;23.292;2022-12-29T01:22:38;46.20;;;31.38;;
30934;SDS011;51033;42.648;23.292;2022-12-29T01:25:04;52.97;;;35.60;;
30934;SDS011;51033;42.648;23.292;2022-12-29T01:27:29;45.42;;;33.35;;
30934;SDS011;51033;42.648;23.292;2022-12-29T01:29:55;43.33;;;30.80;;
30934;SDS011;51033;42.648;23.292;2022-12-29T01:32:20;51.20;;;37.72;;
30934;SDS011;51033;42.648;23.292;2022-12-29T01:34:45;52.95;;;34.75;;
30934;SDS011;51033;42.648;23.292;2022-12-29T01:37:11;54.97;;;38.40;;
30934;SDS011;51033;42.648;23.292;2022-12-29T01:39:36;53.65;;;35.55;;
30934;SDS011;51033;42.648;23.292;2022-12-29T01:42:02;60.97;;;42.70;;
30934;SDS011;51033;42.648;23.292;2022-12-29T01:50:49;56.10;;;37.58;;
30934;SDS011;51033;42.648;23.292;2022-12-29T01:53:04;52.67;;;36.70;;
30934;SDS011;51033;42.648;23.292;2022-12-29T01:55:33;53.08;;;35.55;;
30934;SDS011;51033;42.648;23.292;2022-12-29T01:58:04;53.28;;;38.55;;
30934;SDS011;51033;42.648;23.292;2022-12-29T02:00:30;49.30;;;34.72;;
30934;SDS011;51033;42.648;23.292;2022-12-29T02:02:56;50.55;;;34.88;;
30934;SDS011;51033;42.648;23.292;2022-12-29T02:05:32;47.38;;;33.22;;
30934;SDS011;51033;42.648;23.292;2022-12-29T02:08:03;49.72;;;34.00;;
30934;SDS011;51033;42.648;23.292;2022-12-29T02:10:30;45.75;;;30.88;;
30934;SDS011;51033;42.648;23.292;2022-12-29T02:12:58;44.95;;;31.85;;
30934;SDS011;51033;42.648;23.292;2022-12-29T02:15:27;42.67;;;29.90;;
30934;SDS011;51033;42.648;23.292;2022-12-29T02:18:02;44.50;;;30.55;;
30934;SDS011;51033;42.648;23.292;2022-12-29T02:26:49;41.90;;;30.35;;
30934;SDS011;51033;42.648;23.292;2022-12-29T02:32:27;44.97;;;31.05;;
30934;SDS011;51033;42.648;23.292;2022-12-29T02:46:12;48.33;;;34.25;;
30934;SDS011;51033;42.648;23.292;2022-12-29T02:49:10;51.00;;;34.28;;
30934;SDS011;51033;42.648;23.292;2022-12-29T02:51:41;52.45;;;36.47;;
30934;SDS011;51033;42.648;23.292;2022-12-29T02:54:16;57.38;;;39.08;;
30934;SDS011;51033;42.648;23.292;2022-12-29T02:57:02;47.63;;;34.05;;
30934;SDS011;51033;42.648;23.292;2022-12-29T02:59:27;44.75;;;33.03;;
30934;SDS011;51033;42.648;23.292;2022-12-29T03:08:04;48.33;;;32.25;;
30934;SDS011;51033;42.648;23.292;2022-12-29T03:13:22;44.63;;;30.92;;
30934;SDS011;51033;42.648;23.292;2022-12-29T03:24:17;44.45;;;31.30;;
30934;SDS011;51033;42.648;23.292;2022-12-29T03:26:45;41.38;;;29.73;;
30934;SDS011;51033;42.648;23.292;2022-12-29T03:29:13;44.95;;;30.40;;
30934;SDS011;51033;42.648;23.292;2022-12-29T03:31:41;44.78;;;30.83;;
30934;SDS011;51033;42.648;23.292;2022-12-29T03:34:08;41.22;;;29.13;;
30934;SDS011;51033;42.648;23.292;2022-12-29T03:36:39;40.45;;;30.50;;
30934;SDS011;51033;42.648;23.292;2022-12-29T03:39:13;42.58;;;30.05;;
30934;SDS011;51033;42.648;23.292;2022-12-29T03:41:42;49.55;;;31.55;;
30934;SDS011;51033;42.648;23.292;2022-12-29T03:44:10;45.60;;;31.98;;
30934;SDS011;51033;42.648;23.292;2022-12-29T03:46:37;44.83;;;30.48;;
30934;SDS011;51033;42.648;23.292;2022-12-29T03:49:02;46.88;;;32.78;;
30934;SDS011;51033;42.648;23.292;2022-12-29T03:51:27;42.67;;;32.03;;
30934;SDS011;51033;42.648;23.292;2022-12-29T03:53:53;42.08;;;30.38;;
30934;SDS011;51033;42.648;23.292;2022-12-29T03:56:18;40.30;;;30.13;;
30934;SDS011;51033;42.648;23.292;2022-12-29T03:58:44;46.83;;;31.63;;
30934;SDS011;51033;42.648;23.292;2022-12-29T04:01:09;43.80;;;30.85;;
30934;SDS011;51033;42.648;23.292;2022-12-29T04:03:34;43.60;;;32.60;;
30934;SDS011;51033;42.648;23.292;2022-12-29T04:06:00;45.67;;;29.70;;
30934;SDS011;51033;42.648;23.292;2022-12-29T04:08:25;42.63;;;30.67;;
30934;SDS011;51033;42.648;23.292;2022-12-29T04:10:51;43.20;;;29.80;;
30934;SDS011;51033;42.648;23.292;2022-12-29T04:13:16;42.05;;;30.95;;
30934;SDS011;51033;42.648;23.292;2022-12-29T04:15:45;41.33;;;29.85;;
30934;SDS011;51033;42.648;23.292;2022-12-29T04:18:11;41.80;;;28.60;;
30934;SDS011;51033;42.648;23.292;2022-12-29T04:20:37;39.45;;;28.33;;
30934;SDS011;51033;42.648;23.292;2022-12-29T04:23:21;40.97;;;27.65;;
30934;SDS011;51033;42.648;23.292;2022-12-29T04:25:46;41.15;;;29.05;;
30934;SDS011;51033;42.648;23.292;2022-12-29T04:28:12;39.03;;;27.67;;
30934;SDS011;51033;42.648;23.292;2022-12-29T04:30:38;38.90;;;25.95;;
30934;SDS011;51033;42.648;23.292;2022-12-29T04:33:04;36.08;;;25.63;;
30934;SDS011;51033;42.648;23.292;2022-12-29T04:35:29;37.95;;;25.23;;
30934;SDS011;51033;42.648;23.292;2022-12-29T04:37:54;34.17;;;23.40;;
30934;SDS011;51033;42.648;23.292;2022-12-29T04:40:20;37.05;;;25.27;;
30934;SDS011;51033;42.648;23.292;2022-12-29T04:42:45;31.38;;;22.88;;
30934;SDS011;51033;42.648;23.292;2022-12-29T04:45:10;29.30;;;21.67;;
30934;SDS011;51033;42.648;23.292;2022-12-29T04:47:36;29.25;;;22.58;;
30934;SDS011;51033;42.648;23.292;2022-12-29T04:50:01;33.72;;;21.95;;
30934;SDS011;51033;42.648;23.292;2022-12-29T04:52:27;35.70;;;24.88;;
30934;SDS011;51033;42.648;23.292;2022-12-29T04:54:52;33.40;;;23.90;;
30934;SDS011;51033;42.648;23.292;2022-12-29T04:57:18;34.10;;;23.92;;
30934;SDS011;51033;42.648;23.292;2022-12-29T04:59:43;37.40;;;26.85;;
30934;SDS011;51033;42.648;23.292;2022-12-29T05:02:09;39.13;;;26.73;;
30934;SDS011;51033;42.648;23.292;2022-12-29T05:04:34;37.97;;;27.27;;
30934;SDS011;51033;42.648;23.292;2022-12-29T05:06:59;34.78;;;25.88;;
30934;SDS011;51033;42.648;23.292;2022-12-29T05:09:25;36.97;;;25.80;;
30934;SDS011;51033;42.648;23.292;2022-12-29T05:11:50;42.03;;;26.42;;
30934;SDS011;51033;42.648;23.292;2022-12-29T05:14:15;40.72;;;29.10;;
30934;SDS011;51033;42.648;23.292;2022-12-29T05:16:41;38.35;;;28.17;;
30934;SDS011;51033;42.648;23.292;2022-12-29T05:19:06;40.90;;;28.83;;
30934;SDS011;51033;42.648;23.292;2022-12-29T05:21:32;41.88;;;30.65;;
30934;SDS011;51033;42.648;23.292;2022-12-29T05:23:57;47.00;;;31.73;;
30934;SDS011;51033;42.648;23.292;2022-12-29T05:26:22;47.92;;;32.50;;
30934;SDS011;51033;42.648;23.292;2022-12-29T05:28:48;45.97;;;31.00;;
30934;SDS011;51033;42.648;23.292;2022-12-29T05:31:13;47.17;;;33.40;;
30934;SDS011;51033;42.648;23.292;2022-12-29T05:33:39;49.80;;;35.05;;
30934;SDS011;51033;42.648;23.292;2022-12-29T05:36:05;49.17;;;35.92;;
30934;SDS011;51033;42.648;23.292;2022-12-29T05:38:31;55.70;;;36.60;;
30934;SDS011;51033;42.648;23.292;2022-12-29T05:40:57;52.50;;;35.58;;
30934;SDS011;51033;42.648;23.292;2022-12-29T05:43:22;50.72;;;36.95;;
30934;SDS011;51033;42.648;23.292;2022-12-29T05:45:48;50.33;;;37.28;;
30934;SDS011;51033;42.648;23.292;2022-12-29T05:48:14;50.58;;;36.85;;
30934;SDS011;51033;42.648;23.292;2022-12-29T05:50:40;51.53;;;36.15;;
30934;SDS011;51033;42.648;23.292;2022-12-29T05:53:05;48.72;;;35.53;;
30934;SDS011;51033;42.648;23.292;2022-12-29T05:55:30;47.67;;;32.22;;
30934;SDS011;51033;42.648;23.292;2022-12-29T05:57:56;50.42;;;34.30;;
30934;SDS011;51033;42.648;23.292;2022-12-29T06:00:21;50.70;;;33.45;;
30934;SDS011;51033;42.648;23.292;2022-12-29T06:02:47;44.83;;;32.78;;
30934;SDS011;51033;42.648;23.292;2022-12-29T06:05:12;43.28;;;30.65;;
30934;SDS011;51033;42.648;23.292;2022-12-29T06:07:37;53.80;;;34.97;;
30934;SDS011;51033;42.648;23.292;2022-12-29T06:10:04;51.33;;;35.10;;
30934;SDS011;51033;42.648;23.292;2022-12-29T06:12:30;53.80;;;36.72;;
30934;SDS011;51033;42.648;23.292;2022-12-29T06:14:56;56.20;;;37.50;;
30934;SDS011;51033;42.648;23.292;2022-12-29T06:17:21;53.45;;;36.22;;
30934;SDS011;51033;42.648;23.292;2022-12-29T06:19:47;45.30;;;30.95;;
30934;SDS011;51033;42.648;23.292;2022-12-29T06:22:12;41.55;;;28.60;;
30934;SDS011;51033;42.648;23.292;2022-12-29T06:24:38;42.85;;;29.65;;
30934;SDS011;51033;42.648;23.292;2022-12-29T06:27:03;43.08;;;31.65;;
30934;SDS011;51033;42.648;23.292;2022-12-29T06:29:29;45.20;;;28.38;;
30934;SDS011;51033;42.648;23.292;2022-12-29T06:31:54;39.50;;;30.63;;
30934;SDS011;51033;42.648;23.292;2022-12-29T06:34:22;39.20;;;28.50;;
30934;SDS011;51033;42.648;23.292;2022-12-29T06:36:48;39.92;;;28.20;;
30934;SDS011;51033;42.648;23.292;2022-12-29T06:39:14;41.05;;;27.80;;
30934;SDS011;51033;42.648;23.292;2022-12-29T06:41:39;44.03;;;30.83;;
30934;SDS011;51033;42.648;23.292;2022-12-29T06:44:04;42.20;;;29.60;;
30934;SDS011;51033;42.648;23.292;2022-12-29T06:46:30;55.05;;;35.40;;
30934;SDS011;51033;42.648;23.292;2022-12-29T06:48:55;68.55;;;41.65;;
30934;SDS011;51033;42.648;23.292;2022-12-29T06:51:21;43.78;;;29.95;;
30934;SDS011;51033;42.648;23.292;2022-12-29T06:53:46;42.20;;;31.10;;
30934;SDS011;51033;42.648;23.292;2022-12-29T06:56:11;43.33;;;32.15;;
30934;SDS011;51033;42.648;23.292;2022-12-29T06:58:37;42.15;;;32.05;;
30934;SDS011;51033;42.648;23.292;2022-12-29T07:01:03;38.85;;;29.02;;
30934;SDS011;51033;42.648;23.292;2022-12-29T07:03:29;41.22;;;29.90;;
30934;SDS011;51033;42.648;23.292;2022-12-29T07:05:54;38.10;;;29.58;;
30934;SDS011;51033;42.648;23.292;2022-12-29T07:08:19;38.97;;;27.63;;
30934;SDS011;51033;42.648;23.292;2022-12-29T07:10:45;40.42;;;28.45;;
30934;SDS011;51033;42.648;23.292;2022-12-29T07:13:11;38.13;;;28.08;;
30934;SDS011;51033;42.648;23.292;2022-12-29T07:15:37;40.85;;;28.17;;
30934;SDS011;51033;42.648;23.292;2022-12-29T07:18:03;38.70;;;27.45;;
30934;SDS011;51033;42.648;23.292;2022-12-29T07:20:29;42.80;;;30.48;;
30934;SDS011;51033;42.648;23.292;2022-12-29T07:22:54;43.33;;;30.88;;
30934;SDS011;51033;42.648;23.292;2022-12-29T07:25:20;46.60;;;32.22;;
30934;SDS011;51033;42.648;23.292;2022-12-29T07:27:45;49.97;;;32.10;;
30934;SDS011;51033;42.648;23.292;2022-12-29T07:30:11;46.40;;;31.58;;
30934;SDS011;51033;42.648;23.292;2022-12-29T07:32:37;48.25;;;34.25;;
30934;SDS011;51033;42.648;23.292;2022-12-29T07:35:02;46.40;;;32.17;;
30934;SDS011;51033;42.648;23.292;2022-12-29T07:37:31;49.42;;;33.58;;
30934;SDS011;51033;42.648;23.292;2022-12-29T07:39:56;51.50;;;35.38;;
30934;SDS011;51033;42.648;23.292;2022-12-29T07:42:22;51.63;;;34.97;;
30934;SDS011;51033;42.648;23.292;2022-12-29T07:44:47;52.28;;;35.83;;
30934;SDS011;51033;42.648;23.292;2022-12-29T07:47:12;50.67;;;34.60;;
30934;SDS011;51033;42.648;23.292;2022-12-29T07:49:38;53.05;;;35.10;;
30934;SDS011;51033;42.648;23.292;2022-12-29T07:52:03;57.17;;;36.97;;
30934;SDS011;51033;42.648;23.292;2022-12-29T07:54:29;58.63;;;39.20;;
30934;SDS011;51033;42.648;23.292;2022-12-29T07:56:54;52.70;;;37.63;;
30934;SDS011;51033;42.648;23.292;2022-12-29T07:59:19;52.90;;;37.50;;
30934;SDS011;51033;42.648;23.292;2022-12-29T08:01:45;52.38;;;37.53;;
30934;SDS011;51033;42.648;23.292;2022-12-29T08:04:10;58.25;;;36.97;;
30934;SDS011;51033;42.648;23.292;2022-12-29T08:06:36;52.70;;;39.80;;
30934;SDS011;51033;42.648;23.292;2022-12-29T08:09:02;49.88;;;34.67;;
30934;SDS011;51033;42.648;23.292;2022-12-29T08:11:28;51.45;;;36.50;;
30934;SDS011;51033;42.648;23.292;2022-12-29T08:13:54;54.95;;;36.67;;
30934;SDS011;51033;42.648;23.292;2022-12-29T08:16:19;62.80;;;37.92;;
30934;SDS011;51033;42.648;23.292;2022-12-29T08:18:45;49.25;;;34.65;;
30934;SDS011;51033;42.648;23.292;2022-12-29T08:21:10;50.40;;;35.40;;
30934;SDS011;51033;42.648;23.292;2022-12-29T08:23:35;53.97;;;34.72;;
30934;SDS011;51033;42.648;23.292;2022-12-29T08:26:03;56.95;;;37.47;;
30934;SDS011;51033;42.648;23.292;2022-12-29T08:28:30;57.13;;;38.95;;
30934;SDS011;51033;42.648;23.292;2022-12-29T08:30:59;54.83;;;36.75;;
30934;SDS011;51033;42.648;23.292;2022-12-29T08:33:26;54.55;;;36.42;;
30934;SDS011;51033;42.648;23.292;2022-12-29T08:35:52;54.70;;;38.65;;
30934;SDS011;51033;42.648;23.292;2022-12-29T08:38:17;53.97;;;37.08;;
30934;SDS011;51033;42.648;23.292;2022-12-29T08:40:43;50.67;;;35.25;;
30934;SDS011;51033;42.648;23.292;2022-12-29T08:43:08;54.75;;;37.45;;
30934;SDS011;51033;42.648;23.292;2022-12-29T08:45:34;48.80;;;35.75;;
30934;SDS011;51033;42.648;23.292;2022-12-29T08:48:00;47.95;;;35.28;;
30934;SDS011;51033;42.648;23.292;2022-12-29T08:50:25;49.38;;;35.88;;
30934;SDS011;51033;42.648;23.292;2022-12-29T08:52:50;47.33;;;34.95;;
30934;SDS011;51033;42.648;23.292;2022-12-29T08:55:16;52.22;;;34.97;;
30934;SDS011;51033;42.648;23.292;2022-12-29T08:57:41;55.88;;;34.80;;
30934;SDS011;51033;42.648;23.292;2022-12-29T09:00:07;54.80;;;35.90;;
30934;SDS011;51033;42.648;23.292;2022-12-29T09:02:33;49.53;;;36.75;;
30934;SDS011;51033;42.648;23.292;2022-12-29T09:04:58;52.75;;;35.90;;
30934;SDS011;51033;42.648;23.292;2022-12-29T09:07:25;42.13;;;31.50;;
30934;SDS011;51033;42.648;23.292;2022-12-29T09:09:50;46.05;;;32.60;;
30934;SDS011;51033;42.648;23.292;2022-12-29T09:12:17;47.95;;;32.95;;
30934;SDS011;51033;42.648;23.292;2022-12-29T09:14:42;53.92;;;37.72;;
30934;SDS011;51033;42.648;23.292;2022-12-29T09:17:09;47.72;;;31.88;;
30934;SDS011;51033;42.648;23.292;2022-12-29T09:19:54;41.08;;;31.88;;
30934;SDS011;51033;42.648;23.292;2022-12-29T09:22:20;47.25;;;33.25;;
30934;SDS011;51033;42.648;23.292;2022-12-29T09:24:45;44.50;;;32.63;;
30934;SDS011;51033;42.648;23.292;2022-12-29T09:27:10;49.72;;;32.70;;
30934;SDS011;51033;42.648;23.292;2022-12-29T09:29:36;54.95;;;35.55;;
30934;SDS011;51033;42.648;23.292;2022-12-29T09:32:01;48.85;;;35.10;;
30934;SDS011;51033;42.648;23.292;2022-12-29T09:34:27;50.15;;;35.97;;
30934;SDS011;51033;42.648;23.292;2022-12-29T09:36:52;49.63;;;35.97;;
30934;SDS011;51033;42.648;23.292;2022-12-29T09:39:17;47.60;;;34.50;;
30934;SDS011;51033;42.648;23.292;2022-12-29T09:41:47;51.67;;;36.55;;
30934;SDS011;51033;42.648;23.292;2022-12-29T09:44:31;50.08;;;35.58;;
30934;SDS011;51033;42.648;23.292;2022-12-29T09:47:06;57.13;;;36.65;;
30934;SDS011;51033;42.648;23.292;2022-12-29T09:52:13;52.50;;;36.87;;
30934;SDS011;51033;42.648;23.292;2022-12-29T09:57:23;58.78;;;38.50;;
30934;SDS011;51033;42.648;23.292;2022-12-29T09:59:53;52.78;;;35.30;;
30934;SDS011;51033;42.648;23.292;2022-12-29T10:02:40;59.67;;;37.72;;
30934;SDS011;51033;42.648;23.292;2022-12-29T10:05:13;50.40;;;34.17;;
30934;SDS011;51033;42.648;23.292;2022-12-29T10:08:33;54.08;;;36.22;;
30934;SDS011;51033;42.648;23.292;2022-12-29T10:13:28;54.40;;;38.40;;
30934;SDS011;51033;42.648;23.292;2022-12-29T10:23:52;48.85;;;37.58;;
30934;SDS011;51033;42.648;23.292;2022-12-29T10:26:20;57.72;;;37.55;;
30934;SDS011;51033;42.648;23.292;2022-12-29T10:31:22;51.55;;;38.30;;
30934;SDS011;51033;42.648;23.292;2022-12-29T10:33:54;53.65;;;38.55;;
30934;SDS011;51033;42.648;23.292;2022-12-29T10:36:33;51.88;;;36.35;;
30934;SDS011;51033;42.648;23.292;2022-12-29T10:41:39;53.17;;;38.40;;
30934;SDS011;51033;42.648;23.292;2022-12-29T10:44:11;56.25;;;38.88;;
30934;SDS011;51033;42.648;23.292;2022-12-29T10:46:41;68.65;;;46.85;;
30934;SDS011;51033;42.648;23.292;2022-12-29T10:49:16;51.50;;;37.33;;
30934;SDS011;51033;42.648;23.292;2022-12-29T10:51:43;66.47;;;40.45;;
30934;SDS011;51033;42.648;23.292;2022-12-29T10:54:19;58.05;;;39.42;;
30934;SDS011;51033;42.648;23.292;2022-12-29T10:57:15;65.57;;;41.85;;
30934;SDS011;51033;42.648;23.292;2022-12-29T10:59:48;56.78;;;39.97;;
30934;SDS011;51033;42.648;23.292;2022-12-29T11:02:29;56.42;;;38.78;;
30934;SDS011;51033;42.648;23.292;2022-12-29T11:07:35;63.28;;;42.63;;
30934;SDS011;51033;42.648;23.292;2022-12-29T11:10:18;57.88;;;43.22;;
30934;SDS011;51033;42.648;23.292;2022-12-29T11:12:58;61.15;;;41.88;;
30934;SDS011;51033;42.648;23.292;2022-12-29T11:15:48;59.40;;;42.55;;
30934;SDS011;51033;42.648;23.292;2022-12-29T11:18:30;60.95;;;43.58;;
30934;SDS011;51033;42.648;23.292;2022-12-29T11:20:59;54.35;;;40.70;;
30934;SDS011;51033;42.648;23.292;2022-12-29T11:23:38;68.03;;;45.47;;
30934;SDS011;51033;42.648;23.292;2022-12-29T11:28:39;62.40;;;43.33;;
30934;SDS011;51033;42.648;23.292;2022-12-29T11:31:07;61.65;;;43.50;;
30934;SDS011;51033;42.648;23.292;2022-12-29T11:33:34;60.05;;;40.20;;
30934;SDS011;51033;42.648;23.292;2022-12-29T11:36:02;63.33;;;41.67;;
30934;SDS011;51033;42.648;23.292;2022-12-29T11:38:51;51.10;;;39.63;;
30934;SDS011;51033;42.648;23.292;2022-12-29T11:41:25;61.38;;;41.95;;
30934;SDS011;51033;42.648;23.292;2022-12-29T11:43:53;56.45;;;40.10;;
30934;SDS011;51033;42.648;23.292;2022-12-29T11:46:27;53.97;;;39.67;;
30934;SDS011;51033;42.648;23.292;2022-12-29T11:48:55;62.30;;;41.15;;
30934;SDS011;51033;42.648;23.292;2022-12-29T11:51:24;55.38;;;40.65;;
30934;SDS011;51033;42.648;23.292;2022-12-29T11:53:54;57.28;;;40.65;;
30934;SDS011;51033;42.648;23.292;2022-12-29T11:56:32;55.75;;;40.50;;
30934;SDS011;51033;42.648;23.292;2022-12-29T11:59:21;54.20;;;41.92;;
30934;SDS011;51033;42.648;23.292;2022-12-29T12:07:52;52.85;;;36.35;;
30934;SDS011;51033;42.648;23.292;2022-12-29T12:10:27;59.63;;;38.80;;
30934;SDS011;51033;42.648;23.292;2022-12-29T12:13:07;58.50;;;40.80;;
30934;SDS011;51033;42.648;23.292;2022-12-29T12:18:46;62.70;;;40.38;;
30934;SDS011;51033;42.648;23.292;2022-12-29T12:29:27;52.25;;;35.92;;
30934;SDS011;51033;42.648;23.292;2022-12-29T12:32:01;47.17;;;33.08;;
30934;SDS011;51033;42.648;23.292;2022-12-29T12:34:37;47.47;;;34.80;;
30934;SDS011;51033;42.648;23.292;2022-12-29T12:42:48;52.10;;;33.25;;
30934;SDS011;51033;42.648;23.292;2022-12-29T12:47:51;50.30;;;34.38;;
30934;SDS011;51033;42.648;23.292;2022-12-29T12:55:46;48.78;;;31.38;;
30934;SDS011;51033;42.648;23.292;2022-12-29T12:58:22;40.75;;;29.58;;
30934;SDS011;51033;42.648;23.292;2022-12-29T13:14:28;54.33;;;36.83;;
30934;SDS011;51033;42.648;23.292;2022-12-29T13:17:15;57.50;;;38.65;;
30934;SDS011;51033;42.648;23.292;2022-12-29T13:20:46;57.47;;;38.08;;
30934;SDS011;51033;42.648;23.292;2022-12-29T13:23:01;60.78;;;36.20;;
30934;SDS011;51033;42.648;23.292;2022-12-29T13:31:15;56.75;;;40.65;;
30934;SDS011;51033;42.648;23.292;2022-12-29T13:39:25;47.25;;;32.45;;
30934;SDS011;51033;42.648;23.292;2022-12-29T13:41:54;50.30;;;32.25;;
30934;SDS011;51033;42.648;23.292;2022-12-29T13:44:28;49.72;;;34.55;;
30934;SDS011;51033;42.648;23.292;2022-12-29T13:46:59;46.25;;;31.25;;
30934;SDS011;51033;42.648;23.292;2022-12-29T13:49:40;44.35;;;31.88;;
30934;SDS011;51033;42.648;23.292;2022-12-29T13:52:12;43.42;;;31.58;;
30934;SDS011;51033;42.648;23.292;2022-12-29T13:57:44;48.78;;;35.03;;
30934;SDS011;51033;42.648;23.292;2022-12-29T14:00:25;50.45;;;33.55;;
30934;SDS011;51033;42.648;23.292;2022-12-29T14:03:19;53.88;;;32.00;;
30934;SDS011;51033;42.648;23.292;2022-12-29T14:06:03;43.65;;;32.08;;
30934;SDS011;51033;42.648;23.292;2022-12-29T14:08:39;43.97;;;33.28;;
30934;SDS011;51033;42.648;23.292;2022-12-29T14:11:07;46.83;;;33.47;;
30934;SDS011;51033;42.648;23.292;2022-12-29T14:13:37;44.25;;;33.25;;
30934;SDS011;51033;42.648;23.292;2022-12-29T14:16:05;47.42;;;30.92;;
30934;SDS011;51033;42.648;23.292;2022-12-29T14:18:31;42.70;;;31.13;;
30934;SDS011;51033;42.648;23.292;2022-12-29T14:21:09;46.30;;;31.85;;
30934;SDS011;51033;42.648;23.292;2022-12-29T14:23:45;49.28;;;32.58;;
30934;SDS011;51033;42.648;23.292;2022-12-29T14:26:13;46.50;;;30.92;;
30934;SDS011;51033;42.648;23.292;2022-12-29T14:29:15;41.42;;;30.55;;
30934;SDS011;51033;42.648;23.292;2022-12-29T14:31:46;44.03;;;30.55;;
30934;SDS011;51033;42.648;23.292;2022-12-29T14:36:59;57.08;;;40.38;;
30934;SDS011;51033;42.648;23.292;2022-12-29T14:39:30;46.83;;;33.28;;
30934;SDS011;51033;42.648;23.292;2022-12-29T14:44:34;110.63;;;73.05;;
30934;SDS011;51033;42.648;23.292;2022-12-29T14:49:56;79.57;;;50.85;;
30934;SDS011;51033;42.648;23.292;2022-12-29T14:52:29;55.72;;;38.22;;
30934;SDS011;51033;42.648;23.292;2022-12-29T14:54:59;44.55;;;33.05;;
30934;SDS011;51033;42.648;23.292;2022-12-29T14:57:57;58.60;;;39.30;;
30934;SDS011;51033;42.648;23.292;2022-12-29T15:00:34;56.05;;;39.22;;
30934;SDS011;51033;42.648;23.292;2022-12-29T15:05:42;65.50;;;45.83;;
30934;SDS011;51033;42.648;23.292;2022-12-29T15:08:08;68.38;;;42.13;;
30934;SDS011;51033;42.648;23.292;2022-12-29T15:10:39;54.83;;;37.20;;
30934;SDS011;51033;42.648;23.292;2022-12-29T15:13:17;59.33;;;41.45;;
30934;SDS011;51033;42.648;23.292;2022-12-29T15:15:46;55.25;;;38.60;;
30934;SDS011;51033;42.648;23.292;2022-12-29T15:18:22;48.15;;;37.00;;
30934;SDS011;51033;42.648;23.292;2022-12-29T15:20:54;61.50;;;44.50;;
30934;SDS011;51033;42.648;23.292;2022-12-29T15:23:22;55.67;;;39.03;;
30934;SDS011;51033;42.648;23.292;2022-12-29T15:25:53;86.50;;;55.78;;
30934;SDS011;51033;42.648;23.292;2022-12-29T15:28:23;120.95;;;73.78;;
30934;SDS011;51033;42.648;23.292;2022-12-29T15:30:54;60.20;;;39.55;;
30934;SDS011;51033;42.648;23.292;2022-12-29T15:33:22;58.55;;;40.85;;
30934;SDS011;51033;42.648;23.292;2022-12-29T15:35:51;57.00;;;37.20;;
30934;SDS011;51033;42.648;23.292;2022-12-29T15:38:22;51.20;;;34.92;;
30934;SDS011;51033;42.648;23.292;2022-12-29T15:40:54;63.78;;;42.55;;
30934;SDS011;51033;42.648;23.292;2022-12-29T15:46:00;62.47;;;38.88;;
30934;SDS011;51033;42.648;23.292;2022-12-29T15:48:27;54.20;;;37.33;;
30934;SDS011;51033;42.648;23.292;2022-12-29T15:50:53;42.63;;;31.35;;
30934;SDS011;51033;42.648;23.292;2022-12-29T15:53:26;69.63;;;43.88;;
30934;SDS011;51033;42.648;23.292;2022-12-29T15:55:56;41.17;;;30.05;;
30934;SDS011;51033;42.648;23.292;2022-12-29T15:58:24;50.92;;;32.10;;
30934;SDS011;51033;42.648;23.292;2022-12-29T16:00:53;146.35;;;75.25;;
30934;SDS011;51033;42.648;23.292;2022-12-29T16:03:22;49.22;;;34.60;;
30934;SDS011;51033;42.648;23.292;2022-12-29T16:05:52;98.15;;;54.78;;
30934;SDS011;51033;42.648;23.292;2022-12-29T16:08:36;50.78;;;39.05;;
30934;SDS011;51033;42.648;23.292;2022-12-29T16:11:06;66.63;;;42.67;;
30934;SDS011;51033;42.648;23.292;2022-12-29T16:13:45;88.15;;;39.90;;
30934;SDS011;51033;42.648;23.292;2022-12-29T16:18:38;31.90;;;20.45;;
30934;SDS011;51033;42.648;23.292;2022-12-29T16:21:04;72.30;;;39.67;;
30934;SDS011;51033;42.648;23.292;2022-12-29T16:23:37;72.82;;;39.17;;
30934;SDS011;51033;42.648;23.292;2022-12-29T16:26:03;46.63;;;26.92;;
30934;SDS011;51033;42.648;23.292;2022-12-29T16:28:36;32.47;;;20.30;;
30934;SDS011;51033;42.648;23.292;2022-12-29T16:31:20;44.40;;;26.45;;
30934;SDS011;51033;42.648;23.292;2022-12-29T16:33:57;28.38;;;18.45;;
30934;SDS011;51033;42.648;23.292;2022-12-29T16:36:33;34.85;;;22.02;;
30934;SDS011;51033;42.648;23.292;2022-12-29T16:39:16;26.55;;;19.95;;
30934;SDS011;51033;42.648;23.292;2022-12-29T16:41:49;33.28;;;23.08;;
30934;SDS011;51033;42.648;23.292;2022-12-29T16:47:28;36.75;;;24.60;;
30934;SDS011;51033;42.648;23.292;2022-12-29T16:49:34;39.67;;;23.42;;
30934;SDS011;51033;42.648;23.292;2022-12-29T16:52:09;28.30;;;19.70;;